Time;durP1;ratioP1;P1;durP2;ratioP2;P2;SDS_P1;SDS_P2;PMS_P1;PMS_P2;Temp;Humidity;BMP_temperature;BMP_pressure;BME280_temperature;BME280_humidity;BME280_pressure;Samples;Min_cycle;Max_cycle;Signal;HPM_P1;HPM_P2
2020/12/04 07:10:31;;;;;;;58.25;25.48;;;;;;;;;;5071405;27;1101764;-67
2020/12/04 07:12:58;;;;;;;48.05;22.83;;;;;;;;;;5085055;28;20043;-66
2020/12/04 07:15:25;;;;;;;48.30;23.40;;;;;;;;;;5074892;28;20080;-66
2020/12/04 07:17:51;;;;;;;71.65;28.05;;;;;;;;;;5101462;28;20031;-65
2020/12/04 07:20:17;;;;;;;116.85;43.72;;;;;;;;;;5111332;28;20024;-64
2020/12/04 07:22:42;;;;;;;85.13;35.95;;;;;;;;;;5109110;28;20380;-66
2020/12/04 07:25:08;;;;;;;89.75;33.60;;;;;;;;;;5091386;28;20015;-74
2020/12/04 07:27:34;;;;;;;82.68;30.80;;;;;;;;;;5091301;28;20382;-71
2020/12/04 07:30:00;;;;;;;95.18;34.13;;;;;;;;;;5097740;28;20031;-72
2020/12/04 07:32:26;;;;;;;54.53;23.65;;;;;;;;;;5071150;28;20016;-71
2020/12/04 07:34:52;;;;;;;37.70;18.90;;;;;;;;;;5054102;28;20149;-71
2020/12/04 07:37:18;;;;;;;38.80;20.40;;;;;;;;;;5054327;28;20025;-69
2020/12/04 07:39:45;;;;;;;37.72;18.95;;;;;;;;;;5071007;28;20055;-78
2020/12/04 07:42:11;;;;;;;45.63;20.58;;;;;;;;;;5055897;28;20115;-74
2020/12/04 07:44:38;;;;;;;44.30;20.17;;;;;;;;;;5071871;28;20066;-73
2020/12/04 07:47:03;;;;;;;49.90;23.10;;;;;;;;;;5062424;28;20015;-77
2020/12/04 07:49:30;;;;;;;46.80;20.30;;;;;;;;;;5090178;28;20487;-75
2020/12/04 07:52:07;;;;;;;50.80;21.23;;;;;;;;;;5089541;28;20019;-77
2020/12/04 07:54:34;;;;;;;52.63;22.83;;;;;;;;;;5108463;28;20020;-75
2020/12/04 07:57:00;;;;;;;53.40;20.08;;;;;;;;;;5107802;28;20102;-75
2020/12/04 07:59:28;;;;;;;42.63;20.08;;;;;;;;;;5108451;28;20023;-76
2020/12/04 08:01:54;;;;;;;37.38;17.20;;;;;;;;;;5090574;28;20011;-76
2020/12/04 08:04:19;;;;;;;29.05;14.82;;;;;;;;;;5108006;28;20375;-75
2020/12/04 08:06:46;;;;;;;36.63;17.83;;;;;;;;;;5105713;28;20042;-73
2020/12/04 08:09:13;;;;;;;41.83;19.95;;;;;;;;;;5064249;28;20461;-73
2020/12/04 08:11:51;;;;;;;41.05;18.52;;;;;;;;;;5104642;28;20020;-81
2020/12/04 08:14:26;;;;;;;33.58;15.70;;;;;;;;;;5097783;28;20028;-78
2020/12/04 08:17:00;;;;;;;41.72;17.20;;;;;;;;;;5089800;28;20021;-75
2020/12/04 08:19:28;;;;;;;43.10;18.75;;;;;;;;;;5055382;28;20032;-74
2020/12/04 08:21:55;;;;;;;51.40;21.77;;;;;;;;;;5065734;28;20012;-73
2020/12/04 08:24:22;;;;;;;30.75;15.27;;;;;;;;;;5077362;28;20447;-73
2020/12/04 08:26:56;;;;;;;32.28;13.90;;;;;;;;;;5076781;28;20020;-73
2020/12/04 08:29:22;;;;;;;30.38;14.77;;;;;;;;;;5094919;28;20499;-75
2020/12/04 08:31:47;;;;;;;32.08;14.55;;;;;;;;;;5095116;28;20095;-75
2020/12/04 08:34:21;;;;;;;27.23;12.68;;;;;;;;;;5094837;28;20109;-75
2020/12/04 08:36:46;;;;;;;34.17;15.30;;;;;;;;;;5060330;28;20019;-75
2020/12/04 08:39:12;;;;;;;45.67;19.77;;;;;;;;;;5094747;28;20012;-73
2020/12/04 08:41:37;;;;;;;43.65;17.63;;;;;;;;;;5076169;28;20048;-75
2020/12/04 08:44:06;;;;;;;35.47;15.80;;;;;;;;;;5076924;28;20145;-75
2020/12/04 08:46:35;;;;;;;33.70;14.63;;;;;;;;;;5093975;28;20017;-68
2020/12/04 08:49:03;;;;;;;27.90;14.07;;;;;;;;;;5094455;28;20445;-69
2020/12/04 08:51:30;;;;;;;27.85;14.25;;;;;;;;;;5081440;28;20020;-67
2020/12/04 08:53:55;;;;;;;35.25;14.38;;;;;;;;;;5096632;28;20527;-66
2020/12/04 08:56:24;;;;;;;28.38;13.13;;;;;;;;;;5093242;28;20027;-67
2020/12/04 08:58:50;;;;;;;26.42;14.52;;;;;;;;;;5094358;28;20435;-65
2020/12/04 09:01:15;;;;;;;27.38;13.30;;;;;;;;;;5094274;28;20047;-64
2020/12/04 09:03:41;;;;;;;39.88;17.45;;;;;;;;;;5093922;28;20063;-64
2020/12/04 09:06:06;;;;;;;25.40;14.32;;;;;;;;;;5086269;28;20469;-63
2020/12/04 09:08:31;;;;;;;29.85;14.75;;;;;;;;;;5092052;28;20021;-64
2020/12/04 09:10:57;;;;;;;28.80;15.23;;;;;;;;;;5075650;28;20487;-62
2020/12/04 09:13:22;;;;;;;28.25;13.23;;;;;;;;;;5094000;28;20066;-64
2020/12/04 09:15:48;;;;;;;28.50;13.95;;;;;;;;;;5094065;28;20020;-63
2020/12/04 09:18:15;;;;;;;28.08;14.02;;;;;;;;;;5094361;28;20020;-65
2020/12/04 09:20:41;;;;;;;27.20;14.02;;;;;;;;;;5070153;28;20383;-66
2020/12/04 09:23:06;;;;;;;25.60;12.88;;;;;;;;;;5057755;28;20115;-68
2020/12/04 09:25:32;;;;;;;30.20;15.40;;;;;;;;;;5085709;28;20076;-68
2020/12/04 09:27:58;;;;;;;35.25;15.95;;;;;;;;;;5092689;28;20027;-68
2020/12/04 09:30:23;;;;;;;27.05;14.13;;;;;;;;;;5074291;28;20044;-65
2020/12/04 09:32:50;;;;;;;27.67;13.23;;;;;;;;;;5073538;28;20020;-65
2020/12/04 09:35:18;;;;;;;26.83;13.05;;;;;;;;;;5071563;28;20024;-64
2020/12/04 09:37:45;;;;;;;29.27;14.20;;;;;;;;;;5065482;28;20523;-64
2020/12/04 09:40:13;;;;;;;36.90;12.20;;;;;;;;;;5091955;28;20020;-65
2020/12/04 09:42:39;;;;;;;25.45;13.15;;;;;;;;;;5092249;28;20107;-64
2020/12/04 09:45:07;;;;;;;25.60;12.85;;;;;;;;;;5091199;28;20071;-63
2020/12/04 09:47:34;;;;;;;26.63;13.02;;;;;;;;;;5092401;28;20035;-63
2020/12/04 09:50:00;;;;;;;27.95;14.38;;;;;;;;;;5073637;28;20052;-64
2020/12/04 09:52:25;;;;;;;25.98;12.27;;;;;;;;;;5073460;28;20016;-63
2020/12/04 09:54:51;;;;;;;23.38;12.85;;;;;;;;;;5090839;28;20023;-63
2020/12/04 09:57:17;;;;;;;25.38;11.93;;;;;;;;;;5058120;28;20032;-63
2020/12/04 09:59:43;;;;;;;28.60;12.40;;;;;;;;;;5093259;28;20111;-64
2020/12/04 10:02:09;;;;;;;41.25;14.27;;;;;;;;;;5074960;28;20027;-64
2020/12/04 10:04:35;;;;;;;28.20;11.93;;;;;;;;;;5092808;28;20028;-64
2020/12/04 10:07:01;;;;;;;24.40;12.23;;;;;;;;;;5061891;28;20016;-64
2020/12/04 10:09:27;;;;;;;23.15;12.63;;;;;;;;;;5090420;28;20105;-64
2020/12/04 10:11:53;;;;;;;24.80;12.88;;;;;;;;;;5073400;28;20024;-64
2020/12/04 10:14:20;;;;;;;26.65;13.73;;;;;;;;;;5056783;28;20016;-65
2020/12/04 10:16:46;;;;;;;26.83;11.95;;;;;;;;;;5068769;28;20472;-63
2020/12/04 10:19:12;;;;;;;28.13;13.95;;;;;;;;;;5090069;28;20019;-64
2020/12/04 10:21:38;;;;;;;28.52;13.13;;;;;;;;;;5073340;28;20016;-66
2020/12/04 10:24:05;;;;;;;22.80;11.77;;;;;;;;;;5090359;28;20059;-64
2020/12/04 10:26:30;;;;;;;25.92;13.18;;;;;;;;;;5073289;28;20028;-62
2020/12/04 10:28:56;;;;;;;24.55;10.77;;;;;;;;;;5092012;28;20039;-62
2020/12/04 10:31:21;;;;;;;29.55;13.80;;;;;;;;;;5074082;28;20036;-64
2020/12/04 10:33:47;;;;;;;22.45;10.70;;;;;;;;;;5088756;28;20026;-64
2020/12/04 10:36:13;;;;;;;26.45;12.70;;;;;;;;;;5063287;28;20034;-63
2020/12/04 10:38:38;;;;;;;24.23;13.18;;;;;;;;;;5053829;28;20074;-62
2020/12/04 10:41:04;;;;;;;20.65;12.00;;;;;;;;;;5053784;28;20024;-62
2020/12/04 10:43:30;;;;;;;22.05;10.57;;;;;;;;;;5071573;28;20016;-63
2020/12/04 10:45:55;;;;;;;24.00;13.75;;;;;;;;;;5071880;28;20024;-63
2020/12/04 10:48:21;;;;;;;25.58;13.10;;;;;;;;;;5071556;28;20044;-62
2020/12/04 10:50:47;;;;;;;20.98;10.45;;;;;;;;;;5057723;28;20028;-63
2020/12/04 10:53:13;;;;;;;25.23;13.35;;;;;;;;;;5041900;28;20023;-65
2020/12/04 10:55:47;;;;;;;23.35;11.75;;;;;;;;;;5074330;28;20016;-62
2020/12/04 10:58:13;;;;;;;29.52;11.88;;;;;;;;;;5077376;28;20590;-62
2020/12/04 11:00:39;;;;;;;27.90;12.95;;;;;;;;;;5071432;28;20099;-62
2020/12/04 11:05:42;;;;;;;27.25;12.68;;;;;;;;;;5055149;28;20031;-63
2020/12/04 11:08:09;;;;;;;23.52;11.88;;;;;;;;;;5054025;28;20031;-64
2020/12/04 11:10:35;;;;;;;24.48;12.98;;;;;;;;;;5070645;28;20049;-61
2020/12/04 11:13:00;;;;;;;22.83;11.10;;;;;;;;;;5053161;28;20265;-60
2020/12/04 11:15:26;;;;;;;24.88;12.52;;;;;;;;;;5053364;28;20017;-63
2020/12/04 11:17:52;;;;;;;29.88;14.48;;;;;;;;;;5071054;28;20032;-63
2020/12/04 11:20:19;;;;;;;23.80;12.98;;;;;;;;;;5071041;28;20377;-64
2020/12/04 11:22:44;;;;;;;24.77;11.75;;;;;;;;;;5052442;28;20059;-62
2020/12/04 11:25:10;;;;;;;18.33;10.00;;;;;;;;;;5052862;28;20051;-63
2020/12/04 11:27:41;;;;;;;22.88;10.35;;;;;;;;;;5071398;28;20029;-63
2020/12/04 11:30:07;;;;;;;30.08;13.90;;;;;;;;;;5054095;28;20473;-63
2020/12/04 11:32:33;;;;;;;23.55;11.57;;;;;;;;;;5052868;28;20066;-63
2020/12/04 11:34:59;;;;;;;21.85;11.85;;;;;;;;;;5055720;28;20042;-63
2020/12/04 11:37:25;;;;;;;34.22;16.25;;;;;;;;;;5072363;28;20019;-62
2020/12/04 11:39:50;;;;;;;41.35;16.85;;;;;;;;;;5065683;28;20047;-61
2020/12/04 11:42:15;;;;;;;35.60;15.52;;;;;;;;;;5091233;28;20016;-60
2020/12/04 11:44:41;;;;;;;32.58;13.20;;;;;;;;;;5090086;28;20025;-61
2020/12/04 11:47:06;;;;;;;64.18;25.30;;;;;;;;;;5089444;28;20024;-60
2020/12/04 11:49:32;;;;;;;22.88;12.23;;;;;;;;;;5071905;28;20361;-60
2020/12/04 11:51:57;;;;;;;59.00;23.88;;;;;;;;;;5090184;28;20043;-60
2020/12/04 11:54:23;;;;;;;53.47;23.08;;;;;;;;;;5087574;28;20114;-62
2020/12/04 11:56:50;;;;;;;29.63;15.73;;;;;;;;;;5060288;28;20383;-61
2020/12/04 11:59:18;;;;;;;21.38;10.40;;;;;;;;;;5093724;28;20032;-60
2020/12/04 12:01:43;;;;;;;19.00;11.32;;;;;;;;;;5093784;28;20032;-60
2020/12/04 12:04:12;;;;;;;19.33;11.15;;;;;;;;;;5094280;28;20379;-63
2020/12/04 12:06:38;;;;;;;26.33;12.03;;;;;;;;;;5092086;28;20036;-60
2020/12/04 12:09:03;;;;;;;31.08;11.05;;;;;;;;;;5075668;28;20833;-61
2020/12/04 12:11:29;;;;;;;29.23;11.18;;;;;;;;;;5069338;28;20052;-60
2020/12/04 12:13:54;;;;;;;21.38;11.50;;;;;;;;;;5079789;28;20021;-61
2020/12/04 12:16:21;;;;;;;22.90;10.77;;;;;;;;;;5074776;28;20033;-60
2020/12/04 12:18:47;;;;;;;21.70;10.30;;;;;;;;;;5049056;28;20025;-63
2020/12/04 12:21:49;;;;;;;26.45;11.65;;;;;;;;;;5075547;28;20036;-62
2020/12/04 12:24:15;;;;;;;18.52;9.95;;;;;;;;;;5080877;28;20038;-62
2020/12/04 12:26:41;;;;;;;22.77;10.68;;;;;;;;;;5048920;28;20654;-63
2020/12/04 12:29:07;;;;;;;18.50;9.25;;;;;;;;;;5069704;28;20477;-64
2020/12/04 12:31:32;;;;;;;18.17;9.90;;;;;;;;;;5038354;28;20012;-64
2020/12/04 12:33:58;;;;;;;18.90;9.68;;;;;;;;;;5072093;28;20027;-64
2020/12/04 12:36:23;;;;;;;15.07;9.00;;;;;;;;;;5075665;28;20102;-61
2020/12/04 12:38:49;;;;;;;16.40;8.85;;;;;;;;;;5093620;28;20464;-62
2020/12/04 12:41:14;;;;;;;18.38;9.80;;;;;;;;;;5076021;28;20417;-61
2020/12/04 12:43:40;;;;;;;15.88;8.90;;;;;;;;;;5060749;28;20039;-62
2020/12/04 12:46:06;;;;;;;16.52;9.90;;;;;;;;;;5058829;28;20491;-62
2020/12/04 12:48:33;;;;;;;20.95;10.20;;;;;;;;;;5093276;28;20662;-63
2020/12/04 12:50:58;;;;;;;17.98;9.27;;;;;;;;;;5093436;28;20024;-62
2020/12/04 12:53:24;;;;;;;12.75;7.90;;;;;;;;;;5074430;28;20027;-63
2020/12/04 12:55:50;;;;;;;16.35;8.23;;;;;;;;;;5075134;28;20020;-63
2020/12/04 12:58:15;;;;;;;21.08;9.40;;;;;;;;;;5075820;28;20372;-62
2020/12/04 13:00:41;;;;;;;17.92;9.05;;;;;;;;;;5092799;28;20108;-63
2020/12/04 13:03:08;;;;;;;17.48;9.05;;;;;;;;;;5059000;28;20056;-63
2020/12/04 13:05:34;;;;;;;20.55;9.90;;;;;;;;;;5076707;28;20039;-64
2020/12/04 13:08:01;;;;;;;15.80;9.00;;;;;;;;;;5090088;28;20381;-63
2020/12/04 13:10:27;;;;;;;17.50;9.18;;;;;;;;;;5074464;28;20142;-64
2020/12/04 13:12:53;;;;;;;19.27;9.57;;;;;;;;;;5074220;28;20024;-63
2020/12/04 13:15:19;;;;;;;17.17;9.05;;;;;;;;;;5074646;28;20103;-62
2020/12/04 13:17:45;;;;;;;16.27;9.57;;;;;;;;;;5092882;28;20221;-64
2020/12/04 13:20:10;;;;;;;18.75;8.93;;;;;;;;;;5075004;28;20192;-63
2020/12/04 13:22:36;;;;;;;16.17;9.43;;;;;;;;;;5091698;28;20533;-62
2020/12/04 13:25:01;;;;;;;16.83;10.10;;;;;;;;;;5073527;28;20020;-63
2020/12/04 13:27:27;;;;;;;18.02;8.80;;;;;;;;;;5092441;28;20020;-63
2020/12/04 13:29:52;;;;;;;20.98;11.50;;;;;;;;;;5092655;28;20020;-63
2020/12/04 13:32:17;;;;;;;19.92;10.02;;;;;;;;;;5094857;28;20012;-63
2020/12/04 13:34:43;;;;;;;18.52;10.32;;;;;;;;;;5097137;28;20028;-63
2020/12/04 13:37:08;;;;;;;19.20;10.98;;;;;;;;;;5096297;28;20020;-62
2020/12/04 13:39:34;;;;;;;20.58;10.82;;;;;;;;;;5091603;28;20039;-63
2020/12/04 13:42:01;;;;;;;24.65;11.73;;;;;;;;;;5073940;28;20399;-63
2020/12/04 13:44:26;;;;;;;22.42;10.90;;;;;;;;;;5071556;28;20020;-64
2020/12/04 13:46:52;;;;;;;17.73;9.73;;;;;;;;;;5071220;28;20499;-61
2020/12/04 13:49:18;;;;;;;19.75;10.55;;;;;;;;;;5074905;28;20040;-62
2020/12/04 13:51:43;;;;;;;18.10;10.52;;;;;;;;;;5075222;28;20019;-63
2020/12/04 13:54:09;;;;;;;18.27;11.07;;;;;;;;;;5073453;28;20369;-62
2020/12/04 13:56:35;;;;;;;25.80;11.35;;;;;;;;;;5063152;28;20028;-62
2020/12/04 13:59:01;;;;;;;26.90;11.38;;;;;;;;;;5072473;28;20099;-63
2020/12/04 14:01:28;;;;;;;24.48;12.30;;;;;;;;;;5061274;28;20601;-64
2020/12/04 14:03:55;;;;;;;18.35;10.10;;;;;;;;;;5090491;28;20054;-63
2020/12/04 14:06:21;;;;;;;20.33;10.75;;;;;;;;;;5082004;28;20028;-64
2020/12/04 14:08:46;;;;;;;26.80;12.98;;;;;;;;;;5053764;28;20040;-62
2020/12/04 14:11:13;;;;;;;22.77;11.00;;;;;;;;;;5071761;28;20013;-61
2020/12/04 14:13:39;;;;;;;21.85;11.25;;;;;;;;;;5071669;28;20016;-63
2020/12/04 14:16:04;;;;;;;22.77;11.27;;;;;;;;;;5080269;28;20033;-63
2020/12/04 14:18:29;;;;;;;22.73;12.20;;;;;;;;;;5083988;28;20048;-71
2020/12/04 14:20:55;;;;;;;26.70;11.63;;;;;;;;;;5072244;28;20380;-67
2020/12/04 14:23:20;;;;;;;26.52;11.57;;;;;;;;;;5070891;28;20016;-68
2020/12/04 14:25:46;;;;;;;22.83;12.13;;;;;;;;;;5078001;28;20023;-68
2020/12/04 14:28:12;;;;;;;23.65;11.88;;;;;;;;;;5091504;28;20101;-66
2020/12/04 14:30:38;;;;;;;27.60;13.13;;;;;;;;;;5045681;28;20055;-68
2020/12/04 14:33:04;;;;;;;21.95;11.43;;;;;;;;;;5089980;28;20028;-70
